sensor_id;sensor_type;location;lat;lon;timestamp;P1;durP1;ratioP1;P2;durP2;ratioP2
23376;SDS011;14353;46.070;13.222;2023-07-02T00:00:29;2.97;;;2.65;;
23376;SDS011;14353;46.070;13.222;2023-07-02T00:02:55;3.13;;;2.70;;
23376;SDS011;14353;46.070;13.222;2023-07-02T00:05:21;3.63;;;2.88;;
23376;SDS011;14353;46.070;13.222;2023-07-02T00:07:47;3.45;;;2.67;;
23376;SDS011;14353;46.070;13.222;2023-07-02T00:10:12;3.08;;;2.72;;
23376;SDS011;14353;46.070;13.222;2023-07-02T00:12:38;3.10;;;2.70;;
23376;SDS011;14353;46.070;13.222;2023-07-02T00:15:04;3.20;;;2.90;;
23376;SDS011;14353;46.070;13.222;2023-07-02T00:17:30;3.53;;;2.70;;
23376;SDS011;14353;46.070;13.222;2023-07-02T00:19:55;3.90;;;2.90;;
23376;SDS011;14353;46.070;13.222;2023-07-02T00:22:21;3.25;;;2.95;;
23376;SDS011;14353;46.070;13.222;2023-07-02T00:24:47;3.22;;;2.92;;
23376;SDS011;14353;46.070;13.222;2023-07-02T00:27:13;3.63;;;2.85;;
23376;SDS011;14353;46.070;13.222;2023-07-02T00:29:39;3.50;;;2.88;;
23376;SDS011;14353;46.070;13.222;2023-07-02T00:32:05;3.00;;;2.70;;
23376;SDS011;14353;46.070;13.222;2023-07-02T00:34:30;3.42;;;3.10;;
23376;SDS011;14353;46.070;13.222;2023-07-02T00:36:56;3.30;;;2.90;;
23376;SDS011;14353;46.070;13.222;2023-07-02T00:39:22;3.63;;;2.78;;
23376;SDS011;14353;46.070;13.222;2023-07-02T00:41:47;3.58;;;3.03;;
23376;SDS011;14353;46.070;13.222;2023-07-02T00:44:13;3.10;;;2.75;;
23376;SDS011;14353;46.070;13.222;2023-07-02T00:46:39;3.70;;;3.20;;
23376;SDS011;14353;46.070;13.222;2023-07-02T00:49:05;3.33;;;2.80;;
23376;SDS011;14353;46.070;13.222;2023-07-02T00:51:33;4.63;;;2.72;;
23376;SDS011;14353;46.070;13.222;2023-07-02T00:53:58;3.15;;;2.70;;
23376;SDS011;14353;46.070;13.222;2023-07-02T00:56:25;3.00;;;2.67;;
23376;SDS011;14353;46.070;13.222;2023-07-02T00:58:53;4.05;;;2.40;;
23376;SDS011;14353;46.070;13.222;2023-07-02T01:01:20;3.40;;;2.80;;
23376;SDS011;14353;46.070;13.222;2023-07-02T01:03:56;3.00;;;2.70;;
23376;SDS011;14353;46.070;13.222;2023-07-02T01:06:27;3.30;;;2.88;;
23376;SDS011;14353;46.070;13.222;2023-07-02T01:08:57;3.30;;;2.80;;
23376;SDS011;14353;46.070;13.222;2023-07-02T01:11:27;4.22;;;2.97;;
23376;SDS011;14353;46.070;13.222;2023-07-02T01:14:00;3.13;;;2.83;;
23376;SDS011;14353;46.070;13.222;2023-07-02T01:16:30;3.83;;;2.72;;
23376;SDS011;14353;46.070;13.222;2023-07-02T01:18:58;3.05;;;2.70;;
23376;SDS011;14353;46.070;13.222;2023-07-02T01:21:28;3.10;;;2.78;;
23376;SDS011;14353;46.070;13.222;2023-07-02T01:23:54;3.00;;;2.70;;
23376;SDS011;14353;46.070;13.222;2023-07-02T01:26:20;2.97;;;2.65;;
23376;SDS011;14353;46.070;13.222;2023-07-02T01:28:46;3.10;;;2.80;;
23376;SDS011;14353;46.070;13.222;2023-07-02T01:31:11;2.90;;;2.55;;
23376;SDS011;14353;46.070;13.222;2023-07-02T01:33:37;3.25;;;2.85;;
23376;SDS011;14353;46.070;13.222;2023-07-02T01:36:03;2.85;;;2.60;;
23376;SDS011;14353;46.070;13.222;2023-07-02T01:38:29;3.50;;;3.08;;
23376;SDS011;14353;46.070;13.222;2023-07-02T01:40:55;3.10;;;2.70;;
23376;SDS011;14353;46.070;13.222;2023-07-02T01:43:20;3.72;;;2.78;;
23376;SDS011;14353;46.070;13.222;2023-07-02T01:45:46;4.10;;;2.60;;
23376;SDS011;14353;46.070;13.222;2023-07-02T01:48:12;2.80;;;2.60;;
23376;SDS011;14353;46.070;13.222;2023-07-02T01:50:37;2.72;;;2.42;;
23376;SDS011;14353;46.070;13.222;2023-07-02T01:53:03;2.72;;;2.42;;
23376;SDS011;14353;46.070;13.222;2023-07-02T01:55:29;3.08;;;2.75;;
23376;SDS011;14353;46.070;13.222;2023-07-02T01:57:54;3.10;;;2.80;;
23376;SDS011;14353;46.070;13.222;2023-07-02T02:00:20;2.88;;;2.58;;
23376;SDS011;14353;46.070;13.222;2023-07-02T02:02:46;2.95;;;2.65;;
23376;SDS011;14353;46.070;13.222;2023-07-02T02:05:11;3.17;;;2.85;;
23376;SDS011;14353;46.070;13.222;2023-07-02T02:07:37;3.92;;;2.50;;
23376;SDS011;14353;46.070;13.222;2023-07-02T02:10:03;2.95;;;2.67;;
23376;SDS011;14353;46.070;13.222;2023-07-02T02:12:29;3.03;;;2.72;;
23376;SDS011;14353;46.070;13.222;2023-07-02T02:14:55;3.25;;;2.90;;
23376;SDS011;14353;46.070;13.222;2023-07-02T02:17:21;3.45;;;2.78;;
23376;SDS011;14353;46.070;13.222;2023-07-02T02:19:48;3.00;;;2.70;;
23376;SDS011;14353;46.070;13.222;2023-07-02T02:22:15;3.65;;;2.63;;
23376;SDS011;14353;46.070;13.222;2023-07-02T02:24:41;3.17;;;2.50;;
23376;SDS011;14353;46.070;13.222;2023-07-02T02:27:07;2.90;;;2.63;;
23376;SDS011;14353;46.070;13.222;2023-07-02T02:29:33;2.75;;;2.50;;
23376;SDS011;14353;46.070;13.222;2023-07-02T02:32:00;2.92;;;2.60;;
23376;SDS011;14353;46.070;13.222;2023-07-02T02:34:25;2.85;;;2.55;;
23376;SDS011;14353;46.070;13.222;2023-07-02T02:36:51;3.00;;;2.60;;
23376;SDS011;14353;46.070;13.222;2023-07-02T02:39:17;3.17;;;2.78;;
23376;SDS011;14353;46.070;13.222;2023-07-02T02:41:42;4.28;;;2.80;;
23376;SDS011;14353;46.070;13.222;2023-07-02T02:44:08;3.08;;;2.70;;
23376;SDS011;14353;46.070;13.222;2023-07-02T02:46:34;2.67;;;2.47;;
23376;SDS011;14353;46.070;13.222;2023-07-02T02:48:59;3.25;;;2.80;;
23376;SDS011;14353;46.070;13.222;2023-07-02T02:51:25;2.50;;;2.30;;
23376;SDS011;14353;46.070;13.222;2023-07-02T02:53:51;2.58;;;2.38;;
23376;SDS011;14353;46.070;13.222;2023-07-02T02:56:16;3.45;;;2.40;;
23376;SDS011;14353;46.070;13.222;2023-07-02T02:58:43;3.40;;;2.60;;
23376;SDS011;14353;46.070;13.222;2023-07-02T03:01:09;2.58;;;2.38;;
23376;SDS011;14353;46.070;13.222;2023-07-02T03:03:40;2.83;;;2.38;;
23376;SDS011;14353;46.070;13.222;2023-07-02T03:06:10;3.35;;;2.67;;
23376;SDS011;14353;46.070;13.222;2023-07-02T03:08:37;2.80;;;2.50;;
23376;SDS011;14353;46.070;13.222;2023-07-02T03:11:02;3.47;;;2.53;;
23376;SDS011;14353;46.070;13.222;2023-07-02T03:13:28;2.67;;;2.42;;
23376;SDS011;14353;46.070;13.222;2023-07-02T03:15:54;3.10;;;2.80;;
23376;SDS011;14353;46.070;13.222;2023-07-02T03:18:19;3.30;;;2.78;;
23376;SDS011;14353;46.070;13.222;2023-07-02T03:20:45;2.90;;;2.60;;
23376;SDS011;14353;46.070;13.222;2023-07-02T03:23:11;2.90;;;2.60;;
23376;SDS011;14353;46.070;13.222;2023-07-02T03:25:36;3.47;;;2.80;;
23376;SDS011;14353;46.070;13.222;2023-07-02T03:28:02;3.63;;;2.50;;
23376;SDS011;14353;46.070;13.222;2023-07-02T03:30:28;3.17;;;2.50;;
23376;SDS011;14353;46.070;13.222;2023-07-02T03:32:54;3.67;;;2.65;;
23376;SDS011;14353;46.070;13.222;2023-07-02T03:35:20;2.53;;;2.33;;
23376;SDS011;14353;46.070;13.222;2023-07-02T03:37:46;3.08;;;2.65;;
23376;SDS011;14353;46.070;13.222;2023-07-02T03:40:11;2.60;;;2.40;;
23376;SDS011;14353;46.070;13.222;2023-07-02T03:42:37;2.47;;;2.28;;
23376;SDS011;14353;46.070;13.222;2023-07-02T03:45:03;3.00;;;2.67;;
23376;SDS011;14353;46.070;13.222;2023-07-02T03:47:29;2.85;;;2.58;;
23376;SDS011;14353;46.070;13.222;2023-07-02T03:49:54;3.22;;;2.50;;
23376;SDS011;14353;46.070;13.222;2023-07-02T03:52:20;2.45;;;2.20;;
23376;SDS011;14353;46.070;13.222;2023-07-02T03:54:46;2.63;;;2.42;;
23376;SDS011;14353;46.070;13.222;2023-07-02T03:57:11;2.60;;;2.40;;
23376;SDS011;14353;46.070;13.222;2023-07-02T03:59:37;3.65;;;2.58;;
23376;SDS011;14353;46.070;13.222;2023-07-02T04:02:03;2.50;;;2.20;;
23376;SDS011;14353;46.070;13.222;2023-07-02T04:04:29;2.95;;;2.65;;
23376;SDS011;14353;46.070;13.222;2023-07-02T04:06:55;2.92;;;2.55;;
23376;SDS011;14353;46.070;13.222;2023-07-02T04:09:20;2.67;;;2.22;;
23376;SDS011;14353;46.070;13.222;2023-07-02T04:11:46;2.90;;;2.47;;
23376;SDS011;14353;46.070;13.222;2023-07-02T04:14:12;2.60;;;2.40;;
23376;SDS011;14353;46.070;13.222;2023-07-02T04:16:37;2.95;;;2.55;;
23376;SDS011;14353;46.070;13.222;2023-07-02T04:19:03;2.53;;;2.30;;
23376;SDS011;14353;46.070;13.222;2023-07-02T04:21:29;2.65;;;2.40;;
23376;SDS011;14353;46.070;13.222;2023-07-02T04:23:55;3.50;;;2.47;;
23376;SDS011;14353;46.070;13.222;2023-07-02T04:26:21;2.67;;;2.47;;
23376;SDS011;14353;46.070;13.222;2023-07-02T04:28:46;2.70;;;2.50;;
23376;SDS011;14353;46.070;13.222;2023-07-02T04:31:12;2.92;;;2.58;;
23376;SDS011;14353;46.070;13.222;2023-07-02T04:33:38;4.70;;;2.50;;
23376;SDS011;14353;46.070;13.222;2023-07-02T04:36:04;3.15;;;2.25;;
23376;SDS011;14353;46.070;13.222;2023-07-02T04:38:30;4.10;;;2.70;;
23376;SDS011;14353;46.070;13.222;2023-07-02T04:40:56;2.75;;;2.50;;
23376;SDS011;14353;46.070;13.222;2023-07-02T04:43:30;2.90;;;2.60;;
23376;SDS011;14353;46.070;13.222;2023-07-02T04:45:57;2.67;;;2.40;;
23376;SDS011;14353;46.070;13.222;2023-07-02T04:48:22;2.72;;;2.40;;
23376;SDS011;14353;46.070;13.222;2023-07-02T04:50:48;2.80;;;2.40;;
23376;SDS011;14353;46.070;13.222;2023-07-02T04:53:14;2.83;;;2.53;;
23376;SDS011;14353;46.070;13.222;2023-07-02T04:55:40;3.20;;;2.78;;
23376;SDS011;14353;46.070;13.222;2023-07-02T04:58:06;2.88;;;2.60;;
23376;SDS011;14353;46.070;13.222;2023-07-02T05:00:32;3.15;;;2.58;;
23376;SDS011;14353;46.070;13.222;2023-07-02T05:02:58;2.50;;;2.30;;
23376;SDS011;14353;46.070;13.222;2023-07-02T05:05:24;3.10;;;2.70;;
23376;SDS011;14353;46.070;13.222;2023-07-02T05:07:49;4.45;;;2.50;;
23376;SDS011;14353;46.070;13.222;2023-07-02T05:10:15;3.20;;;2.67;;
23376;SDS011;14353;46.070;13.222;2023-07-02T05:12:41;2.40;;;2.20;;
23376;SDS011;14353;46.070;13.222;2023-07-02T05:15:07;2.47;;;2.25;;
23376;SDS011;14353;46.070;13.222;2023-07-02T05:17:32;2.60;;;2.40;;
23376;SDS011;14353;46.070;13.222;2023-07-02T05:20:00;2.47;;;2.28;;
23376;SDS011;14353;46.070;13.222;2023-07-02T05:22:27;2.85;;;2.30;;
23376;SDS011;14353;46.070;13.222;2023-07-02T05:24:52;3.15;;;2.38;;
23376;SDS011;14353;46.070;13.222;2023-07-02T05:27:18;2.92;;;2.53;;
23376;SDS011;14353;46.070;13.222;2023-07-02T05:29:44;2.40;;;2.20;;
23376;SDS011;14353;46.070;13.222;2023-07-02T05:32:10;3.22;;;2.30;;
23376;SDS011;14353;46.070;13.222;2023-07-02T05:34:35;2.60;;;2.13;;
23376;SDS011;14353;46.070;13.222;2023-07-02T05:37:01;2.70;;;2.50;;
23376;SDS011;14353;46.070;13.222;2023-07-02T05:39:27;2.70;;;2.50;;
23376;SDS011;14353;46.070;13.222;2023-07-02T05:41:53;3.20;;;2.65;;
23376;SDS011;14353;46.070;13.222;2023-07-02T05:44:18;2.60;;;2.40;;
23376;SDS011;14353;46.070;13.222;2023-07-02T05:46:44;2.47;;;2.28;;
23376;SDS011;14353;46.070;13.222;2023-07-02T05:49:10;3.30;;;2.80;;
23376;SDS011;14353;46.070;13.222;2023-07-02T05:51:36;2.45;;;2.25;;
23376;SDS011;14353;46.070;13.222;2023-07-02T05:54:01;3.63;;;2.28;;
23376;SDS011;14353;46.070;13.222;2023-07-02T05:56:27;3.00;;;2.70;;
23376;SDS011;14353;46.070;13.222;2023-07-02T05:58:53;2.80;;;2.53;;
23376;SDS011;14353;46.070;13.222;2023-07-02T06:01:18;2.72;;;2.40;;
23376;SDS011;14353;46.070;13.222;2023-07-02T06:03:44;2.60;;;2.40;;
23376;SDS011;14353;46.070;13.222;2023-07-02T06:06:10;2.33;;;2.13;;
23376;SDS011;14353;46.070;13.222;2023-07-02T06:08:37;3.13;;;2.30;;
23376;SDS011;14353;46.070;13.222;2023-07-02T06:11:02;2.67;;;2.47;;
23376;SDS011;14353;46.070;13.222;2023-07-02T06:13:28;2.63;;;2.22;;
23376;SDS011;14353;46.070;13.222;2023-07-02T06:15:54;2.50;;;2.30;;
23376;SDS011;14353;46.070;13.222;2023-07-02T06:18:19;2.70;;;2.42;;
23376;SDS011;14353;46.070;13.222;2023-07-02T06:20:45;2.30;;;2.10;;
23376;SDS011;14353;46.070;13.222;2023-07-02T06:23:11;2.88;;;2.38;;
23376;SDS011;14353;46.070;13.222;2023-07-02T06:25:37;2.35;;;2.15;;
23376;SDS011;14353;46.070;13.222;2023-07-02T06:28:03;2.55;;;2.20;;
23376;SDS011;14353;46.070;13.222;2023-07-02T06:30:29;3.00;;;2.50;;
23376;SDS011;14353;46.070;13.222;2023-07-02T06:32:54;2.30;;;2.10;;
23376;SDS011;14353;46.070;13.222;2023-07-02T06:35:20;2.40;;;2.20;;
23376;SDS011;14353;46.070;13.222;2023-07-02T06:37:46;2.65;;;2.35;;
23376;SDS011;14353;46.070;13.222;2023-07-02T06:40:12;2.80;;;2.40;;
23376;SDS011;14353;46.070;13.222;2023-07-02T06:42:38;2.67;;;2.47;;
23376;SDS011;14353;46.070;13.222;2023-07-02T06:45:04;2.55;;;2.28;;
23376;SDS011;14353;46.070;13.222;2023-07-02T06:47:30;2.85;;;2.50;;
23376;SDS011;14353;46.070;13.222;2023-07-02T06:49:56;2.47;;;2.15;;
23376;SDS011;14353;46.070;13.222;2023-07-02T06:52:22;2.72;;;2.47;;
23376;SDS011;14353;46.070;13.222;2023-07-02T06:54:47;2.45;;;2.25;;
23376;SDS011;14353;46.070;13.222;2023-07-02T06:57:13;2.67;;;2.45;;
23376;SDS011;14353;46.070;13.222;2023-07-02T06:59:39;3.03;;;2.67;;
23376;SDS011;14353;46.070;13.222;2023-07-02T07:02:05;2.42;;;2.22;;
23376;SDS011;14353;46.070;13.222;2023-07-02T07:04:31;2.78;;;2.28;;
23376;SDS011;14353;46.070;13.222;2023-07-02T07:06:59;2.75;;;2.30;;
23376;SDS011;14353;46.070;13.222;2023-07-02T07:09:27;4.20;;;2.30;;
23376;SDS011;14353;46.070;13.222;2023-07-02T07:11:53;2.47;;;2.28;;
23376;SDS011;14353;46.070;13.222;2023-07-02T07:14:19;2.40;;;2.20;;
23376;SDS011;14353;46.070;13.222;2023-07-02T07:16:45;2.60;;;2.40;;
23376;SDS011;14353;46.070;13.222;2023-07-02T07:19:11;3.03;;;2.40;;
23376;SDS011;14353;46.070;13.222;2023-07-02T07:21:36;2.78;;;2.40;;
23376;SDS011;14353;46.070;13.222;2023-07-02T07:24:02;2.53;;;2.33;;
23376;SDS011;14353;46.070;13.222;2023-07-02T07:26:28;2.28;;;2.08;;
23376;SDS011;14353;46.070;13.222;2023-07-02T07:28:53;2.55;;;2.30;;
23376;SDS011;14353;46.070;13.222;2023-07-02T07:31:21;2.60;;;2.40;;
23376;SDS011;14353;46.070;13.222;2023-07-02T07:33:46;2.47;;;2.28;;
23376;SDS011;14353;46.070;13.222;2023-07-02T07:36:12;2.40;;;2.20;;
23376;SDS011;14353;46.070;13.222;2023-07-02T07:38:39;2.50;;;2.30;;
23376;SDS011;14353;46.070;13.222;2023-07-02T07:41:04;2.42;;;2.22;;
23376;SDS011;14353;46.070;13.222;2023-07-02T07:43:30;2.60;;;2.40;;
23376;SDS011;14353;46.070;13.222;2023-07-02T07:45:56;2.78;;;2.30;;
23376;SDS011;14353;46.070;13.222;2023-07-02T07:48:21;2.38;;;2.17;;
23376;SDS011;14353;46.070;13.222;2023-07-02T07:50:47;2.67;;;2.47;;
23376;SDS011;14353;46.070;13.222;2023-07-02T07:53:13;2.50;;;2.30;;
23376;SDS011;14353;46.070;13.222;2023-07-02T07:55:39;2.85;;;2.53;;
23376;SDS011;14353;46.070;13.222;2023-07-02T07:58:05;2.47;;;2.28;;
23376;SDS011;14353;46.070;13.222;2023-07-02T08:00:30;2.30;;;2.10;;
23376;SDS011;14353;46.070;13.222;2023-07-02T08:02:56;2.33;;;2.13;;
23376;SDS011;14353;46.070;13.222;2023-07-02T08:05:22;2.47;;;2.28;;
23376;SDS011;14353;46.070;13.222;2023-07-02T08:07:48;2.90;;;2.30;;
23376;SDS011;14353;46.070;13.222;2023-07-02T08:10:14;2.50;;;2.22;;
23376;SDS011;14353;46.070;13.222;2023-07-02T08:12:40;2.25;;;2.05;;
23376;SDS011;14353;46.070;13.222;2023-07-02T08:15:06;2.40;;;2.20;;
23376;SDS011;14353;46.070;13.222;2023-07-02T08:17:32;2.30;;;2.10;;
23376;SDS011;14353;46.070;13.222;2023-07-02T08:19:57;2.30;;;2.10;;
23376;SDS011;14353;46.070;13.222;2023-07-02T08:22:23;2.45;;;2.25;;
23376;SDS011;14353;46.070;13.222;2023-07-02T08:24:49;2.30;;;2.10;;
23376;SDS011;14353;46.070;13.222;2023-07-02T08:27:15;2.05;;;1.85;;
23376;SDS011;14353;46.070;13.222;2023-07-02T08:29:44;2.38;;;2.17;;
23376;SDS011;14353;46.070;13.222;2023-07-02T08:32:11;2.03;;;1.83;;
23376;SDS011;14353;46.070;13.222;2023-07-02T08:34:37;2.20;;;2.00;;
23376;SDS011;14353;46.070;13.222;2023-07-02T08:37:03;2.15;;;1.95;;
23376;SDS011;14353;46.070;13.222;2023-07-02T08:39:28;2.45;;;2.25;;
23376;SDS011;14353;46.070;13.222;2023-07-02T08:41:54;2.50;;;2.30;;
23376;SDS011;14353;46.070;13.222;2023-07-02T08:44:20;2.17;;;1.95;;
23376;SDS011;14353;46.070;13.222;2023-07-02T08:46:49;2.28;;;2.08;;
23376;SDS011;14353;46.070;13.222;2023-07-02T08:49:16;2.35;;;2.15;;
23376;SDS011;14353;46.070;13.222;2023-07-02T08:51:44;2.20;;;2.00;;
23376;SDS011;14353;46.070;13.222;2023-07-02T08:54:10;2.35;;;2.03;;
23376;SDS011;14353;46.070;13.222;2023-07-02T08:56:36;2.28;;;2.08;;
23376;SDS011;14353;46.070;13.222;2023-07-02T08:59:01;2.30;;;2.10;;
23376;SDS011;14353;46.070;13.222;2023-07-02T09:01:27;2.60;;;2.30;;
23376;SDS011;14353;46.070;13.222;2023-07-02T09:03:58;3.13;;;2.60;;
23376;SDS011;14353;46.070;13.222;2023-07-02T09:06:25;2.47;;;2.17;;
23376;SDS011;14353;46.070;13.222;2023-07-02T09:08:51;2.47;;;2.28;;
23376;SDS011;14353;46.070;13.222;2023-07-02T09:11:16;2.88;;;2.40;;
23376;SDS011;14353;46.070;13.222;2023-07-02T09:18:57;2.30;;;2.10;;
23376;SDS011;14353;46.070;13.222;2023-07-02T09:21:27;2.13;;;1.90;;
23376;SDS011;14353;46.070;13.222;2023-07-02T09:24:19;2.28;;;2.08;;
23376;SDS011;14353;46.070;13.222;2023-07-02T09:26:47;2.30;;;2.10;;
23376;SDS011;14353;46.070;13.222;2023-07-02T09:31:55;2.13;;;1.92;;
23376;SDS011;14353;46.070;13.222;2023-07-02T09:34:29;2.92;;;2.40;;
23376;SDS011;14353;46.070;13.222;2023-07-02T09:36:56;2.42;;;2.22;;
23376;SDS011;14353;46.070;13.222;2023-07-02T09:39:27;2.10;;;1.90;;
23376;SDS011;14353;46.070;13.222;2023-07-02T09:41:57;4.10;;;2.30;;
23376;SDS011;14353;46.070;13.222;2023-07-02T09:44:28;2.47;;;2.28;;
23376;SDS011;14353;46.070;13.222;2023-07-02T09:49:27;2.40;;;2.20;;
23376;SDS011;14353;46.070;13.222;2023-07-02T09:51:59;2.30;;;2.10;;
23376;SDS011;14353;46.070;13.222;2023-07-02T09:54:26;2.50;;;2.30;;
23376;SDS011;14353;46.070;13.222;2023-07-02T09:56:52;2.78;;;2.40;;
23376;SDS011;14353;46.070;13.222;2023-07-02T09:59:18;2.30;;;2.10;;
23376;SDS011;14353;46.070;13.222;2023-07-02T10:01:44;2.00;;;1.83;;
23376;SDS011;14353;46.070;13.222;2023-07-02T10:04:13;2.10;;;1.90;;
23376;SDS011;14353;46.070;13.222;2023-07-02T10:06:49;2.05;;;1.85;;
23376;SDS011;14353;46.070;13.222;2023-07-02T10:09:20;2.20;;;2.00;;
23376;SDS011;14353;46.070;13.222;2023-07-02T10:11:58;2.80;;;2.28;;
23376;SDS011;14353;46.070;13.222;2023-07-02T10:14:24;2.33;;;2.13;;
23376;SDS011;14353;46.070;13.222;2023-07-02T10:16:51;2.42;;;2.22;;
23376;SDS011;14353;46.070;13.222;2023-07-02T10:19:17;2.30;;;2.10;;
23376;SDS011;14353;46.070;13.222;2023-07-02T10:21:43;2.35;;;2.10;;
23376;SDS011;14353;46.070;13.222;2023-07-02T10:24:11;2.42;;;2.22;;
23376;SDS011;14353;46.070;13.222;2023-07-02T10:26:38;2.47;;;2.28;;
23376;SDS011;14353;46.070;13.222;2023-07-02T10:29:18;3.03;;;2.15;;
23376;SDS011;14353;46.070;13.222;2023-07-02T10:31:48;2.40;;;2.08;;
23376;SDS011;14353;46.070;13.222;2023-07-02T10:34:15;2.22;;;2.03;;
23376;SDS011;14353;46.070;13.222;2023-07-02T10:36:41;2.53;;;1.92;;
23376;SDS011;14353;46.070;13.222;2023-07-02T10:39:07;2.47;;;2.28;;
23376;SDS011;14353;46.070;13.222;2023-07-02T10:41:34;2.20;;;2.00;;
23376;SDS011;14353;46.070;13.222;2023-07-02T10:44:06;2.13;;;1.92;;
23376;SDS011;14353;46.070;13.222;2023-07-02T10:46:48;2.17;;;1.98;;
23376;SDS011;14353;46.070;13.222;2023-07-02T10:49:16;2.10;;;1.90;;
23376;SDS011;14353;46.070;13.222;2023-07-02T10:51:43;2.20;;;2.00;;
23376;SDS011;14353;46.070;13.222;2023-07-02T10:54:08;2.60;;;1.90;;
23376;SDS011;14353;46.070;13.222;2023-07-02T10:56:34;2.53;;;2.33;;
23376;SDS011;14353;46.070;13.222;2023-07-02T10:59:00;2.30;;;2.10;;
23376;SDS011;14353;46.070;13.222;2023-07-02T11:03:57;2.35;;;2.00;;
23376;SDS011;14353;46.070;13.222;2023-07-02T11:06:23;2.58;;;2.08;;
23376;SDS011;14353;46.070;13.222;2023-07-02T11:08:49;2.15;;;1.88;;
23376;SDS011;14353;46.070;13.222;2023-07-02T11:11:15;2.20;;;2.00;;
23376;SDS011;14353;46.070;13.222;2023-07-02T11:13:47;1.90;;;1.80;;
23376;SDS011;14353;46.070;13.222;2023-07-02T11:16:20;2.30;;;1.92;;
23376;SDS011;14353;46.070;13.222;2023-07-02T11:18:54;2.13;;;1.92;;
23376;SDS011;14353;46.070;13.222;2023-07-02T11:21:36;2.55;;;2.08;;
23376;SDS011;14353;46.070;13.222;2023-07-02T11:24:06;2.45;;;2.13;;
23376;SDS011;14353;46.070;13.222;2023-07-02T11:26:36;2.20;;;2.00;;
23376;SDS011;14353;46.070;13.222;2023-07-02T11:29:12;2.13;;;1.92;;
23376;SDS011;14353;46.070;13.222;2023-07-02T11:31:42;2.35;;;2.15;;
23376;SDS011;14353;46.070;13.222;2023-07-02T11:34:12;2.20;;;1.98;;
23376;SDS011;14353;46.070;13.222;2023-07-02T11:36:42;2.40;;;2.05;;
23376;SDS011;14353;46.070;13.222;2023-07-02T11:39:07;2.50;;;2.30;;
23376;SDS011;14353;46.070;13.222;2023-07-02T11:41:40;2.40;;;2.20;;
23376;SDS011;14353;46.070;13.222;2023-07-02T11:44:07;2.22;;;2.03;;
23376;SDS011;14353;46.070;13.222;2023-07-02T11:46:33;2.13;;;1.92;;
23376;SDS011;14353;46.070;13.222;2023-07-02T11:49:02;2.45;;;2.08;;
23376;SDS011;14353;46.070;13.222;2023-07-02T11:51:38;2.22;;;2.03;;
23376;SDS011;14353;46.070;13.222;2023-07-02T11:54:05;2.22;;;1.90;;
23376;SDS011;14353;46.070;13.222;2023-07-02T11:56:31;2.90;;;2.08;;
23376;SDS011;14353;46.070;13.222;2023-07-02T11:58:57;2.10;;;1.90;;
23376;SDS011;14353;46.070;13.222;2023-07-02T12:01:23;2.20;;;2.00;;
23376;SDS011;14353;46.070;13.222;2023-07-02T12:03:48;2.45;;;2.13;;
23376;SDS011;14353;46.070;13.222;2023-07-02T12:06:14;2.00;;;1.80;;
23376;SDS011;14353;46.070;13.222;2023-07-02T12:08:40;1.90;;;1.80;;
23376;SDS011;14353;46.070;13.222;2023-07-02T12:11:06;2.45;;;2.22;;
23376;SDS011;14353;46.070;13.222;2023-07-02T12:13:32;2.05;;;1.90;;
23376;SDS011;14353;46.070;13.222;2023-07-02T12:15:58;2.45;;;2.25;;
23376;SDS011;14353;46.070;13.222;2023-07-02T12:18:23;2.22;;;2.03;;
23376;SDS011;14353;46.070;13.222;2023-07-02T12:20:49;1.88;;;1.63;;
23376;SDS011;14353;46.070;13.222;2023-07-02T12:23:15;2.20;;;2.00;;
23376;SDS011;14353;46.070;13.222;2023-07-02T12:25:40;2.05;;;1.85;;
23376;SDS011;14353;46.070;13.222;2023-07-02T12:28:06;2.08;;;1.88;;
23376;SDS011;14353;46.070;13.222;2023-07-02T12:30:32;2.00;;;1.80;;
23376;SDS011;14353;46.070;13.222;2023-07-02T12:32:58;2.28;;;1.92;;
23376;SDS011;14353;46.070;13.222;2023-07-02T12:35:24;2.00;;;1.80;;
23376;SDS011;14353;46.070;13.222;2023-07-02T12:37:50;1.95;;;1.75;;
23376;SDS011;14353;46.070;13.222;2023-07-02T12:40:17;2.45;;;2.13;;
23376;SDS011;14353;46.070;13.222;2023-07-02T12:42:44;2.22;;;2.03;;
23376;SDS011;14353;46.070;13.222;2023-07-02T12:45:11;3.13;;;2.30;;
23376;SDS011;14353;46.070;13.222;2023-07-02T12:47:38;2.50;;;2.30;;
23376;SDS011;14353;46.070;13.222;2023-07-02T12:50:05;2.03;;;1.83;;
23376;SDS011;14353;46.070;13.222;2023-07-02T12:52:32;1.90;;;1.80;;
23376;SDS011;14353;46.070;13.222;2023-07-02T12:54:58;2.60;;;2.20;;
23376;SDS011;14353;46.070;13.222;2023-07-02T12:57:24;2.03;;;1.83;;
23376;SDS011;14353;46.070;13.222;2023-07-02T12:59:51;2.10;;;1.90;;
23376;SDS011;14353;46.070;13.222;2023-07-02T13:02:21;2.50;;;2.17;;
23376;SDS011;14353;46.070;13.222;2023-07-02T13:04:47;2.42;;;2.20;;
23376;SDS011;14353;46.070;13.222;2023-07-02T13:07:13;2.03;;;1.83;;
23376;SDS011;14353;46.070;13.222;2023-07-02T13:09:39;1.92;;;1.75;;
23376;SDS011;14353;46.070;13.222;2023-07-02T13:12:05;2.10;;;1.90;;
23376;SDS011;14353;46.070;13.222;2023-07-02T13:14:31;2.55;;;2.25;;
23376;SDS011;14353;46.070;13.222;2023-07-02T13:16:57;2.00;;;1.80;;
23376;SDS011;14353;46.070;13.222;2023-07-02T13:19:24;2.13;;;1.92;;
23376;SDS011;14353;46.070;13.222;2023-07-02T13:21:50;2.17;;;1.98;;
23376;SDS011;14353;46.070;13.222;2023-07-02T13:24:16;2.05;;;1.85;;
23376;SDS011;14353;46.070;13.222;2023-07-02T13:26:41;2.20;;;2.00;;
23376;SDS011;14353;46.070;13.222;2023-07-02T13:29:07;2.25;;;2.05;;
23376;SDS011;14353;46.070;13.222;2023-07-02T13:31:33;2.58;;;2.10;;
23376;SDS011;14353;46.070;13.222;2023-07-02T13:33:58;2.25;;;2.05;;
23376;SDS011;14353;46.070;13.222;2023-07-02T13:36:24;2.25;;;2.05;;
23376;SDS011;14353;46.070;13.222;2023-07-02T13:38:50;2.42;;;2.22;;
23376;SDS011;14353;46.070;13.222;2023-07-02T13:41:16;2.67;;;2.25;;
23376;SDS011;14353;46.070;13.222;2023-07-02T13:43:41;2.10;;;1.90;;
23376;SDS011;14353;46.070;13.222;2023-07-02T13:46:07;2.15;;;1.90;;
23376;SDS011;14353;46.070;13.222;2023-07-02T13:48:33;2.17;;;1.98;;
23376;SDS011;14353;46.070;13.222;2023-07-02T13:51:00;2.13;;;1.75;;
23376;SDS011;14353;46.070;13.222;2023-07-02T13:53:25;2.03;;;1.83;;
23376;SDS011;14353;46.070;13.222;2023-07-02T13:55:51;1.92;;;1.80;;
23376;SDS011;14353;46.070;13.222;2023-07-02T13:58:17;2.10;;;1.90;;
23376;SDS011;14353;46.070;13.222;2023-07-02T14:00:43;2.22;;;1.90;;
23376;SDS011;14353;46.070;13.222;2023-07-02T14:03:08;2.20;;;2.00;;
23376;SDS011;14353;46.070;13.222;2023-07-02T14:05:34;2.30;;;1.90;;
23376;SDS011;14353;46.070;13.222;2023-07-02T14:08:00;2.33;;;2.13;;
23376;SDS011;14353;46.070;13.222;2023-07-02T14:10:26;2.15;;;1.88;;
23376;SDS011;14353;46.070;13.222;2023-07-02T14:12:53;1.77;;;1.67;;
23376;SDS011;14353;46.070;13.222;2023-07-02T14:15:19;2.25;;;2.05;;
23376;SDS011;14353;46.070;13.222;2023-07-02T14:17:45;1.90;;;1.70;;
23376;SDS011;14353;46.070;13.222;2023-07-02T14:20:11;2.22;;;1.90;;
23376;SDS011;14353;46.070;13.222;2023-07-02T14:22:37;2.33;;;2.00;;
23376;SDS011;14353;46.070;13.222;2023-07-02T14:25:03;2.90;;;2.33;;
23376;SDS011;14353;46.070;13.222;2023-07-02T14:27:29;2.03;;;1.83;;
23376;SDS011;14353;46.070;13.222;2023-07-02T14:29:54;1.92;;;1.80;;
23376;SDS011;14353;46.070;13.222;2023-07-02T14:32:21;2.10;;;1.90;;
23376;SDS011;14353;46.070;13.222;2023-07-02T14:34:46;2.20;;;2.00;;
23376;SDS011;14353;46.070;13.222;2023-07-02T14:37:12;2.10;;;1.90;;
23376;SDS011;14353;46.070;13.222;2023-07-02T14:39:38;2.17;;;1.98;;
23376;SDS011;14353;46.070;13.222;2023-07-02T14:42:04;2.20;;;2.00;;